NZAANWWW

Guest
Details From NZAA - Auckland International
To NWWW - Noumea La Tontouta
Flight Number -
Tags Generated
Created
Modified
Stats Distance 1,005 nm / 1,862 km
Max Altitude 0 ft / 0 m
Waypoints 4
Social Downloads 1
Likes 0
Share VATSIM

Download

Looking for another format? Having issues loading an existing format? Contact us
Advertisement - Login to hide

Notes

Generated

Route

NZAA TOGOL NULVI NWWW

ID Type Via Altitude Latitude Longitude Leg Dist Tot Dist Heading (true) Name
O NZAA APT - 0 ft / 0 m -37.01438˚ 174.77090˚ - 0 nm - -
TOGOL FIX - 0 ft / 0 m -35.31200˚ 173.63991˚ 116 nm 116 nm 331° / 332° -
NULVI FIX - 0 ft / 0 m -22.27389˚ 166.35611˚ 871 nm 987 nm 332° / 336° -
O NWWW APT - 0 ft / 0 m -22.00756˚ 166.20102˚ 18 nm 1005 nm 332° / 332° -

Altitude Profile

Advertisement - Login to hide

Weather


0- 5 10 15 20 25 30 35+ Temperature / ° C

Clouds and Precipitation
Forecast for 2017-12-15 06:00 UTC. Updated 2 hours ago

Ground ~20,000 ft ~40,000 ft Winds

NZAA

Details ICAO NZAA (AKL)
Name Auckland International
Region New Zealand and Antarctica
Timezone Pacific/Auckland (UTC+13.0)
Stats Elevation 23 ft / 7 m (AMSL)
Location -37.010794° 174.787331°
Runways 2
Magnetic Variation 19.833° E

METAR

NZAA 150630Z AUTO 24011KT 9999 NCD 22/15 Q1018 NOSIG

Decode

TAF

Not found

Departure Runways

ID Width Length Bearing (true) Bearing (mag) Surface Threshold Offset Overrun Length
05L 157 ft / 48 m 10,844 ft / 3,305 m 70.91° 51.08° Concrete 1,240 ft / 378 m 460 ft / 140 m
05R 152 ft / 46 m 12,085 ft / 3,684 m 70.96° 51.13° Concrete 1,270 ft / 387 m 0 ft / 0 m
23L 152 ft / 46 m 12,085 ft / 3,684 m 250.94° 231.11° Concrete 0 ft / 0 m 0 ft / 0 m
23R 157 ft / 48 m 10,844 ft / 3,305 m 250.89° 231.06° Concrete 1,060 ft / 323 m 0 ft / 0 m

NWWW

Details ICAO NWWW (NOU)
Name Noumea La Tontouta
Region New Caledonia
Timezone Pacific/Noumea (UTC+11.0)
Stats Elevation 51 ft / 16 m (AMSL)
Location -22.014529° 166.213022°
Runways 1
Magnetic Variation 12.335° E

METAR

NWWW 150630Z AUTO VRB01KT 9999 FEW045 SCT052 BKN190 25/24 Q1008 TEMPO 1500 TSRA BKN015 SCT020CB

Decode

TAF

TAF NWWW 150500Z 1506/1606 VRB02KT 9999 SCT035 BKN050 BKN130 TEMPO 1506/1509 4500 SHRA BKN020 SCT030CB PROB40 TEMPO 1506/1508 2000 TSRA TEMPO 1515/1520 SHRA BECMG 1522/1524 13012KT TEMPO 1600/1606 SHRA FEW030TCU

Decode

Destination Runways

ID Width Length Bearing (true) Bearing (mag) Surface Threshold Offset Overrun Length
11 148 ft / 45 m 10,666 ft / 3,251 m 121.21° 108.88° Asphalt 0 ft / 0 m 338 ft / 103 m
29 148 ft / 45 m 10,666 ft / 3,251 m 301.19° 288.86° Asphalt 0 ft / 0 m 354 ft / 108 m

Approach Navaids

Runway Type Ident Frequency Range Bearing (true) Bearing (mag) Slope Elevation
11 Localiser LT 109.90 MHz 18 nm / 33 km 120.69° 108.35° - 52 ft / 16 m (AMSL)
11 Glidescope LT 109.90 MHz 10 nm / 19 km 121.20° 108.87° 3.00° 24 ft / 7 m (AMSL)

Popular Alternatives